Time;durP1;ratioP1;P1;durP2;ratioP2;P2;SDS_P1;SDS_P2;PMS_P1;PMS_P2;Temp;Humidity;BMP_temperature;BMP_pressure;BME280_temperature;BME280_humidity;BME280_pressure;Samples;Min_cycle;Max_cycle;Signal;HPM_P1;HPM_P2
2023/05/03 00:01:07;;;;;;;6.63;2.00;;;;;;;5.68;100.00;102889.78;10383941;28;20076;-74
2023/05/03 00:06:10;;;;;;;3.17;1.77;;;;;;;5.84;100.00;102906.19;10399485;28;20038;-75
2023/05/03 00:11:10;;;;;;;5.57;1.63;;;;;;;5.76;100.00;102903.44;10382073;28;20382;-74
2023/05/03 00:16:11;;;;;;;7.00;1.65;;;;;;;5.79;100.00;102905.84;10398997;28;20033;-74
2023/05/03 00:21:12;;;;;;;7.47;2.53;;;;;;;5.73;100.00;102900.22;10382805;28;20040;-74
2023/05/03 00:26:12;;;;;;;6.15;2.10;;;;;;;5.78;100.00;102906.88;10381971;28;20037;-74
2023/05/03 00:31:13;;;;;;;16.92;4.63;;;;;;;5.78;100.00;102904.13;10398913;28;20063;-74
2023/05/03 00:36:13;;;;;;;8.02;2.20;;;;;;;5.80;100.00;102907.53;10415137;28;20030;-76
2023/05/03 00:41:14;;;;;;;5.90;2.28;;;;;;;5.41;100.00;102850.88;10366173;28;20049;-73
2023/05/03 00:46:14;;;;;;;4.45;2.35;;;;;;;5.78;100.00;102915.06;10365800;28;20117;-75
2023/05/03 00:51:15;;;;;;;4.70;2.65;;;;;;;5.86;100.00;102920.53;10396790;28;20064;-75
2023/05/03 00:56:22;;;;;;;8.45;3.05;;;;;;;5.83;100.00;102915.41;10415513;28;20038;-75
2023/05/03 01:01:22;;;;;;;6.95;2.80;;;;;;;5.83;100.00;102914.56;10382003;28;20041;-74
2023/05/03 01:06:26;;;;;;;6.55;2.42;;;;;;;5.92;100.00;102919.00;10380634;28;20033;-74
2023/05/03 01:11:33;;;;;;;6.07;2.72;;;;;;;5.82;100.00;102902.75;10415603;28;20052;-74
2023/05/03 01:16:55;;;;;;;11.95;3.03;;;;;;;5.95;100.00;102901.41;10382203;28;20057;-75
2023/05/03 01:22:02;;;;;;;5.18;2.45;;;;;;;5.96;100.00;102903.13;10384404;28;20044;-74
2023/05/03 01:27:02;;;;;;;;;;;;;;;6.01;100.00;102906.19;10394824;28;20482;-74
2023/05/03 01:32:04;;;;;;;5.35;2.30;;;;;;;5.94;100.00;102914.19;10394869;28;19921;-74
2023/05/03 01:37:04;;;;;;;5.15;2.10;;;;;;;6.02;100.00;102916.09;10379934;28;20506;-74
2023/05/03 01:42:05;;;;;;;3.17;2.22;;;;;;;6.00;100.00;102909.97;10396318;28;20029;-74
2023/05/03 01:47:06;;;;;;;8.60;2.80;;;;;;;6.06;100.00;102915.56;10396566;28;20096;-74
2023/05/03 01:52:06;;;;;;;7.55;2.47;;;;;;;6.07;100.00;102921.91;10396073;28;20040;-74
2023/05/03 01:57:07;;;;;;;5.22;2.60;;;;;;;6.05;100.00;102929.41;10362461;28;20091;-75
2023/05/03 02:02:07;;;;;;;6.20;3.17;;;;;;;6.10;100.00;102929.75;10393617;28;20037;-74
2023/05/03 02:07:08;;;;;;;7.10;3.13;;;;;;;5.97;100.00;102907.56;10379802;28;20520;-73
2023/05/03 02:12:10;;;;;;;7.10;2.70;;;;;;;6.07;100.00;102917.28;10379003;28;20041;-74
2023/05/03 02:17:10;;;;;;;7.60;2.65;;;;;;;6.07;100.00;102916.41;10394553;28;20428;-74
2023/05/03 02:22:11;;;;;;;7.03;3.22;;;;;;;6.06;100.00;102904.63;10394876;28;20036;-74
2023/05/03 02:27:11;;;;;;;4.10;2.58;;;;;;;6.07;100.00;102909.06;10394716;28;20449;-75
2023/05/03 02:32:12;;;;;;;9.20;3.30;;;;;;;6.10;100.00;102915.22;10383378;28;20042;-75
2023/05/03 02:37:12;;;;;;;6.80;2.85;;;;;;;5.99;100.00;102913.72;10394795;28;20072;-74
2023/05/03 02:42:13;;;;;;;6.18;2.67;;;;;;;6.00;100.00;102915.44;10393627;28;20116;-76
2023/05/03 02:47:13;;;;;;;5.30;3.05;;;;;;;6.03;100.00;102923.28;10352471;28;20053;-74
2023/05/03 02:52:14;;;;;;;4.35;3.13;;;;;;;6.04;100.00;102925.00;10376557;28;20088;-75
2023/05/03 02:57:15;;;;;;;6.75;2.95;;;;;;;6.03;100.00;102915.91;10394207;28;20033;-74
2023/05/03 03:02:15;;;;;;;4.90;2.78;;;;;;;5.97;100.00;102913.03;10377399;28;20100;-71
2023/05/03 03:07:16;;;;;;;18.15;4.00;;;;;;;5.90;100.00;102907.38;10394950;28;20038;-74
2023/05/03 03:12:16;;;;;;;5.78;3.28;;;;;;;5.78;100.00;102892.34;10410983;28;20040;-74
2023/05/03 03:17:17;;;;;;;6.35;3.03;;;;;;;5.80;100.00;102891.16;10391644;28;20517;-73
2023/05/03 03:22:18;;;;;;;7.85;3.42;;;;;;;5.81;100.00;102890.13;10390012;28;20041;-73
2023/05/03 03:27:20;;;;;;;5.05;3.00;;;;;;;5.86;100.00;102886.88;10343311;28;20056;-73
2023/05/03 03:32:21;;;;;;;8.18;2.88;;;;;;;5.86;100.00;102882.25;10392626;28;20045;-73
2023/05/03 03:37:22;;;;;;;4.43;2.88;;;;;;;5.95;100.00;102887.75;10360125;28;20045;-74
2023/05/03 03:42:24;;;;;;;4.50;3.25;;;;;;;6.00;100.00;102882.63;10359992;28;20044;-74
2023/05/03 03:47:25;;;;;;;5.60;2.92;;;;;;;6.00;100.00;102877.16;10392112;28;20049;-73
2023/05/03 03:52:26;;;;;;;7.65;2.58;;;;;;;5.94;100.00;102861.41;10375262;28;20568;-72
2023/05/03 03:57:29;;;;;;;5.32;2.90;;;;;;;6.06;100.00;102879.19;10373799;28;20099;-73
2023/05/03 04:02:29;;;;;;;4.40;2.92;;;;;;;6.01;100.00;102889.78;10408523;28;20378;-74
2023/05/03 04:07:30;;;;;;;8.77;3.67;;;;;;;5.90;100.00;102888.22;10375883;28;20061;-75
2023/05/03 04:12:30;;;;;;;6.00;2.55;;;;;;;5.86;100.00;102898.66;10375985;28;20045;-75
2023/05/03 04:17:33;;;;;;;8.23;2.88;;;;;;;5.77;100.00;102907.06;10375737;28;20088;-75
2023/05/03 04:22:33;;;;;;;6.43;3.15;;;;;;;5.69;100.00;102907.91;10358826;28;20053;-74
2023/05/03 04:27:34;;;;;;;4.63;2.78;;;;;;;5.55;100.00;102906.72;10390843;28;20045;-76
2023/05/03 04:32:36;;;;;;;3.83;2.65;;;;;;;5.47;100.00;102926.69;10390295;28;20034;-76
2023/05/03 04:37:37;;;;;;;4.15;3.00;;;;;;;5.35;100.00;102928.03;10381597;28;20080;-75
2023/05/03 04:42:37;;;;;;;4.55;2.67;;;;;;;5.32;100.00;102922.09;10366760;28;20103;-76
2023/05/03 04:47:37;;;;;;;4.43;2.78;;;;;;;5.42;100.00;102937.28;10382799;28;20041;-75
2023/05/03 04:52:38;;;;;;;3.75;2.60;;;;;;;5.62;100.00;102961.53;10415319;28;20048;-75
2023/05/03 04:57:39;;;;;;;4.80;2.83;;;;;;;5.44;100.00;102899.72;10397478;28;20037;-75
2023/05/03 05:02:39;;;;;;;7.05;3.53;;;;;;;5.96;100.00;102952.34;10381466;28;20053;-75
2023/05/03 05:07:40;;;;;;;5.90;3.50;;;;;;;6.13;100.00;102948.53;10398515;28;20049;-76
2023/05/03 05:12:40;;;;;;;7.47;2.60;;;;;;;6.27;100.00;102941.50;10396633;28;20497;-76
2023/05/03 05:17:41;;;;;;;5.40;2.97;;;;;;;6.53;100.00;102963.16;10380730;28;20068;-76
2023/05/03 05:22:41;;;;;;;3.08;2.03;;;;;;;6.55;100.00;102931.00;10397502;28;20117;-76
2023/05/03 05:27:42;;;;;;;3.70;2.03;;;;;;;6.87;100.00;102962.00;10380515;28;20034;-76
2023/05/03 05:32:42;;;;;;;10.45;2.33;;;;;;;7.00;100.00;102965.00;10397802;28;20056;-75
2023/05/03 05:37:43;;;;;;;5.28;2.30;;;;;;;7.00;100.00;102955.94;10379953;28;20485;-74
2023/05/03 05:42:45;;;;;;;7.35;2.20;;;;;;;7.08;100.00;102951.25;10395669;28;20037;-74
2023/05/03 05:47:45;;;;;;;5.65;2.05;;;;;;;7.30;100.00;102959.69;10379416;28;20425;-72
2023/05/03 05:52:46;;;;;;;4.88;1.75;;;;;;;7.42;100.00;102962.84;10415248;28;20045;-74
2023/05/03 05:57:46;;;;;;;3.63;1.30;;;;;;;7.55;100.00;102970.50;10396147;28;20041;-74
2023/05/03 06:02:47;;;;;;;3.33;1.38;;;;;;;7.69;100.00;102961.47;10394895;28;20037;-76
2023/05/03 06:07:48;;;;;;;5.07;1.30;;;;;;;7.84;100.00;102967.84;10395804;28;20179;-75
2023/05/03 06:12:49;;;;;;;3.10;1.08;;;;;;;7.88;100.00;102936.25;10379289;28;20041;-76
2023/05/03 06:17:50;;;;;;;4.97;1.45;;;;;;;7.98;100.00;102943.34;10395272;28;20041;-76
2023/05/03 06:22:51;;;;;;;3.83;1.38;;;;;;;8.19;100.00;102951.72;10379017;28;20156;-76
2023/05/03 06:27:51;;;;;;;2.47;0.90;;;;;;;8.39;100.00;102953.91;10378263;28;20045;-76
2023/05/03 06:32:52;;;;;;;2.97;1.10;;;;;;;8.59;100.00;102956.97;10394534;28;20075;-76
2023/05/03 06:37:52;;;;;;;2.58;0.70;;;;;;;8.73;100.00;102947.03;10359265;28;20037;-75
2023/05/03 06:42:53;;;;;;;4.45;0.90;;;;;;;8.82;100.00;102951.38;10361453;28;20483;-74
2023/05/03 06:47:53;;;;;;;4.07;0.80;;;;;;;8.83;100.00;102931.13;10377673;28;20044;-74
2023/05/03 06:52:54;;;;;;;2.92;0.82;;;;;;;8.91;100.00;102939.25;10393155;28;20076;-77
2023/05/03 06:57:54;;;;;;;1.70;0.85;;;;;;;8.90;100.00;102937.53;10391964;28;20041;-73
2023/05/03 07:02:55;;;;;;;2.83;0.70;;;;;;;8.78;100.00;102917.94;10376423;28;20460;-75
2023/05/03 07:07:56;;;;;;;2.13;0.65;;;;;;;8.84;100.00;102925.41;10376450;28;20087;-71
2023/05/03 07:12:56;;;;;;;4.15;0.60;;;;;;;9.14;100.00;102949.22;10392930;28;20698;-74
2023/05/03 07:17:57;;;;;;;2.58;0.80;;;;;;;9.07;100.00;102930.78;10376023;28;20041;-74
2023/05/03 07:22:57;;;;;;;2.20;0.80;;;;;;;9.28;100.00;102934.56;10375393;28;20033;-74
2023/05/03 07:27:58;;;;;;;4.03;1.05;;;;;;;9.40;100.00;102927.50;10391393;28;20045;-74
2023/05/03 07:32:58;;;;;;;2.13;0.90;;;;;;;9.52;100.00;102940.75;10392137;28;20049;-74
2023/05/03 07:37:59;;;;;;;2.42;0.70;;;;;;;9.63;100.00;102938.31;10390736;28;20033;-74
2023/05/03 07:42:59;;;;;;;2.78;0.75;;;;;;;9.70;100.00;102935.63;10407960;28;20373;-73
2023/05/03 07:48:00;;;;;;;7.38;1.08;;;;;;;9.58;100.00;102928.94;10360362;28;20409;-73
2023/05/03 07:53:00;;;;;;;1.65;0.60;;;;;;;9.68;100.00;102940.47;10375454;28;20529;-74
2023/05/03 07:58:02;;;;;;;2.22;0.85;;;;;;;9.81;100.00;102924.06;10356766;28;20037;-74
2023/05/03 08:03:04;;;;;;;1.15;0.82;;;;;;;10.03;100.00;102937.81;10374148;28;20418;-73
2023/05/03 08:08:05;;;;;;;2.78;0.65;;;;;;;10.21;100.00;102951.91;10408192;28;20041;-74
2023/05/03 08:13:05;;;;;;;2.65;0.60;;;;;;;10.30;100.00;102934.19;10371284;28;20053;-74
2023/05/03 08:18:06;;;;;;;4.00;0.65;;;;;;;10.58;100.00;102951.72;10383082;28;20044;-74
2023/05/03 08:23:06;;;;;;;5.93;0.98;;;;;;;10.57;100.00;102928.84;10398914;28;20049;-74
2023/05/03 08:28:07;;;;;;;2.03;0.82;;;;;;;10.65;100.00;102925.91;10398830;28;20060;-79
2023/05/03 08:33:11;;;;;;;6.30;0.80;;;;;;;10.88;100.00;102924.75;10399482;28;20401;-73
2023/05/03 08:38:12;;;;;;;6.88;0.73;;;;;;;11.13;100.00;102924.19;10412807;28;20061;-75
2023/05/03 08:43:13;;;;;;;3.85;0.55;;;;;;;11.39;100.00;102940.81;10415760;28;20044;-74
2023/05/03 08:48:13;;;;;;;5.30;0.88;;;;;;;11.31;99.23;102921.69;10373033;28;20065;-73
2023/05/03 08:53:14;;;;;;;2.30;0.70;;;;;;;11.09;97.00;102926.50;10397689;28;20037;-74
2023/05/03 08:58:15;;;;;;;5.03;0.90;;;;;;;11.05;96.77;102909.53;10382431;28;20549;-74
2023/05/03 09:03:15;;;;;;;4.95;0.80;;;;;;;11.40;92.75;102911.31;10383403;28;20037;-75
2023/05/03 09:08:16;;;;;;;2.25;0.70;;;;;;;11.31;93.86;102918.94;10365617;28;20041;-74
2023/05/03 09:13:17;;;;;;;3.45;0.68;;;;;;;11.33;96.00;102927.84;10378804;28;20046;-74
2023/05/03 09:18:18;;;;;;;4.85;0.63;;;;;;;11.49;98.48;102932.97;10346662;28;20040;-75
2023/05/03 09:23:24;;;;;;;2.42;0.88;;;;;;;11.67;96.71;102931.50;10364352;28;20068;-75
2023/05/03 09:28:25;;;;;;;4.00;0.85;;;;;;;11.78;96.24;102914.31;10415164;28;20046;-74
2023/05/03 09:33:29;;;;;;;7.80;0.90;;;;;;;11.81;96.54;102924.91;10364670;28;20109;-75
2023/05/03 09:38:32;;;;;;;4.55;0.70;;;;;;;11.90;92.57;102909.00;10378658;28;20041;-75
2023/05/03 09:43:34;;;;;;;4.38;1.27;;;;;;;12.11;95.85;102930.00;10364069;28;20037;-75
2023/05/03 09:48:36;;;;;;;3.92;0.95;;;;;;;12.27;94.53;102918.50;10364486;28;20125;-74
2023/05/03 09:53:37;;;;;;;1.75;0.80;;;;;;;12.43;93.20;102911.69;10379915;28;20120;-75
2023/05/03 09:58:38;;;;;;;1.40;0.80;;;;;;;12.53;89.01;102902.94;10363964;28;20060;-74
2023/05/03 10:03:49;;;;;;;5.03;0.85;;;;;;;12.41;90.82;102893.63;10360756;28;20128;-74
2023/05/03 10:09:05;;;;;;;4.22;1.05;;;;;;;12.88;87.26;102892.38;10393993;28;20049;-75
2023/05/03 10:14:06;;;;;;;6.05;0.82;;;;;;;12.89;87.52;102891.28;10379309;28;20527;-75
2023/05/03 10:19:33;;;;;;;3.10;0.90;;;;;;;12.49;88.27;102921.03;10360612;28;20045;-76
2023/05/03 10:24:34;;;;;;;2.42;0.88;;;;;;;12.56;91.68;102912.72;10358420;28;20052;-75
2023/05/03 10:29:36;;;;;;;3.47;0.90;;;;;;;12.87;88.22;102914.69;10361852;28;20512;-76
2023/05/03 10:34:38;;;;;;;4.25;0.88;;;;;;;13.10;90.38;102920.56;10344099;28;20049;-75
2023/05/03 10:39:43;;;;;;;3.60;1.10;;;;;;;13.00;86.46;102889.75;10320297;28;20505;-76
2023/05/03 10:44:51;;;;;;;2.03;0.90;;;;;;;12.96;85.14;102907.00;10335775;28;20057;-75
2023/05/03 10:50:10;;;;;;;2.88;0.93;;;;;;;12.71;82.84;102908.63;10336835;28;20046;-76
2023/05/03 10:55:16;;;;;;;7.43;0.82;;;;;;;12.65;85.82;102919.66;10366911;28;20101;-76
2023/05/03 11:00:32;;;;;;;5.05;1.00;;;;;;;13.60;86.19;102910.66;10352442;28;20046;-76
2023/05/03 11:05:33;;;;;;;2.70;0.88;;;;;;;14.45;83.97;102896.19;10356820;28;20034;-76
2023/05/03 11:10:34;;;;;;;5.22;1.17;;;;;;;15.66;81.12;102890.66;10319667;28;20041;-77
2023/05/03 11:15:35;;;;;;;3.08;0.60;;;;;;;16.39;79.09;102885.72;10321528;28;20034;-76
2023/05/03 11:20:35;;;;;;;1.98;0.80;;;;;;;15.57;77.36;102875.47;10336887;28;20041;-76
2023/05/03 11:25:37;;;;;;;4.10;0.85;;;;;;;14.97;79.60;102888.31;10337089;28;20058;-76
2023/05/03 11:30:37;;;;;;;5.18;1.23;;;;;;;14.37;78.23;102879.91;10324111;28;20045;-75
2023/05/03 11:35:38;;;;;;;2.85;0.80;;;;;;;14.02;77.08;102886.03;10359964;28;20025;-76
2023/05/03 11:40:39;;;;;;;4.00;0.73;;;;;;;14.24;78.75;102887.28;10373679;28;20124;-76
2023/05/03 11:45:44;;;;;;;2.65;0.80;;;;;;;15.10;77.97;102881.72;10363303;28;20030;-76
2023/05/03 11:50:50;;;;;;;3.47;1.33;;;;;;;16.47;74.42;102857.53;10352358;28;20044;-77
2023/05/03 11:55:52;;;;;;;2.78;0.98;;;;;;;16.28;73.99;102860.47;10347330;28;20127;-74
2023/05/03 12:00:54;;;;;;;5.50;0.90;;;;;;;15.64;74.61;102874.25;10384769;28;20059;-74
2023/05/03 12:05:55;;;;;;;5.22;1.48;;;;;;;14.36;72.94;102864.34;10366662;28;20041;-74
2023/05/03 12:10:56;;;;;;;4.88;0.90;;;;;;;13.88;75.62;102852.91;10344522;28;20049;-74
2023/05/03 12:16:01;;;;;;;6.00;1.23;;;;;;;13.73;76.15;102861.56;10382768;28;20061;-76
2023/05/03 12:21:01;;;;;;;5.05;1.20;;;;;;;13.51;78.33;102874.94;10366471;28;20164;-74
2023/05/03 12:26:01;;;;;;;7.55;1.98;;;;;;;13.71;81.33;102854.56;10399007;28;20030;-75
2023/05/03 12:31:03;;;;;;;1.85;0.90;;;;;;;14.50;77.48;102843.69;10379004;28;20428;-76
2023/05/03 12:36:04;;;;;;;3.70;1.33;;;;;;;15.11;75.52;102837.13;10375566;28;20044;-77
2023/05/03 12:41:04;;;;;;;3.72;1.00;;;;;;;15.32;75.76;102844.03;10382004;28;20048;-75
2023/05/03 12:46:05;;;;;;;3.50;1.27;;;;;;;17.11;74.79;102833.22;10350351;28;20072;-75
2023/05/03 12:51:05;;;;;;;3.95;1.08;;;;;;;16.84;70.50;102818.25;10382354;28;20037;-75
2023/05/03 12:56:06;;;;;;;4.30;1.20;;;;;;;17.24;69.04;102808.94;10376354;28;20037;-76
2023/05/03 13:01:06;;;;;;;4.32;1.08;;;;;;;17.71;65.85;102805.81;10349348;28;20489;-76
2023/05/03 13:06:07;;;;;;;2.28;1.00;;;;;;;18.19;65.22;102773.63;10364506;28;20029;-76
2023/05/03 13:11:08;;;;;;;3.33;1.50;;;;;;;18.24;63.81;102764.50;10397613;28;20052;-77
2023/05/03 13:16:08;;;;;;;1.90;1.15;;;;;;;18.59;64.22;102766.84;10398017;28;20048;-76
2023/05/03 13:21:09;;;;;;;2.63;0.90;;;;;;;19.14;64.25;102784.41;10364967;28;20041;-75
2023/05/03 13:26:10;;;;;;;4.43;1.30;;;;;;;18.82;62.92;102778.81;10396850;28;20037;-74
2023/05/03 13:31:10;;;;;;;3.58;1.50;;;;;;;19.02;62.17;102770.66;10379909;28;20421;-74
2023/05/03 13:36:11;;;;;;;1.60;1.00;;;;;;;19.69;61.46;102752.41;10347202;28;20990;-74
2023/05/03 13:41:12;;;;;;;3.70;1.50;;;;;;;20.24;58.96;102729.78;10364159;28;20041;-75
2023/05/03 13:46:12;;;;;;;5.18;1.30;;;;;;;20.41;59.77;102730.38;10355406;28;20052;-75
2023/05/03 13:51:13;;;;;;;5.80;1.20;;;;;;;20.43;58.20;102716.13;10355976;28;20034;-74
2023/05/03 13:56:13;;;;;;;4.25;1.40;;;;;;;20.52;61.40;102726.47;10371280;28;20037;-74
2023/05/03 14:01:14;;;;;;;4.40;1.10;;;;;;;20.82;58.54;102708.09;10339399;28;20038;-76
2023/05/03 14:06:14;;;;;;;4.78;1.05;;;;;;;19.99;59.13;102722.13;10352766;28;20683;-75
2023/05/03 14:11:16;;;;;;;3.55;1.40;;;;;;;20.04;58.39;102697.00;10362899;28;20038;-74
2023/05/03 14:16:20;;;;;;;2.90;1.40;;;;;;;20.48;58.54;102707.72;10325176;28;20551;-75
2023/05/03 14:21:21;;;;;;;7.18;1.58;;;;;;;20.34;58.52;102688.69;10341368;28;20049;-76
2023/05/03 14:26:22;;;;;;;2.55;1.45;;;;;;;20.45;57.98;102699.91;10338811;28;20041;-77
2023/05/03 14:31:23;;;;;;;2.90;1.48;;;;;;;19.71;58.07;102704.69;10354508;28;20033;-77
2023/05/03 14:36:25;;;;;;;3.53;1.38;;;;;;;18.83;58.51;102685.63;10370167;28;20030;-76
2023/05/03 14:41:26;;;;;;;3.58;1.55;;;;;;;18.99;60.15;102698.59;10337733;28;20034;-77
2023/05/03 14:46:26;;;;;;;2.83;1.45;;;;;;;19.75;59.32;102706.66;10369989;28;20104;-77
2023/05/03 14:51:27;;;;;;;4.10;1.70;;;;;;;19.73;57.96;102680.09;10370598;28;20049;-78
2023/05/03 14:56:30;;;;;;;3.78;1.52;;;;;;;20.44;57.47;102670.22;10354769;28;20046;-76
2023/05/03 15:01:30;;;;;;;4.75;1.55;;;;;;;19.70;57.66;102691.78;10356168;28;20049;-75
2023/05/03 15:06:31;;;;;;;2.85;2.30;;;;;;;19.66;58.01;102691.50;10344259;28;20041;-76
2023/05/03 15:11:32;;;;;;;6.70;1.95;;;;;;;19.72;57.68;102673.66;10362147;28;20030;-75
2023/05/03 15:16:32;;;;;;;5.07;1.67;;;;;;;20.04;57.91;102674.63;10377076;28;20048;-75
2023/05/03 15:21:46;;;;;;;5.00;1.98;;;;;;;19.90;57.32;102655.56;10356516;28;20034;-75
2023/05/03 15:26:47;;;;;;;4.63;2.00;;;;;;;19.99;57.51;102671.78;10359719;28;20056;-75
2023/05/03 15:31:47;;;;;;;3.63;1.65;;;;;;;20.51;57.67;102673.63;10391312;28;20045;-77
2023/05/03 15:36:48;;;;;;;4.55;2.08;;;;;;;19.46;57.87;102674.63;10342767;28;20041;-75
2023/05/03 15:41:48;;;;;;;4.13;2.13;;;;;;;19.17;58.74;102682.53;10409915;28;20525;-75
2023/05/03 15:46:49;;;;;;;6.65;1.65;;;;;;;20.14;58.50;102671.84;10375375;28;20050;-75
2023/05/03 15:51:50;;;;;;;6.15;1.88;;;;;;;21.07;56.77;102664.41;10391380;28;20060;-76
2023/05/03 15:56:52;;;;;;;5.28;1.70;;;;;;;20.52;57.01;102652.91;10374960;28;20520;-75
2023/05/03 16:01:52;;;;;;;7.10;1.90;;;;;;;19.85;55.75;102633.19;10358290;28;20477;-76
2023/05/03 16:06:53;;;;;;;4.85;2.03;;;;;;;20.15;56.69;102631.59;10359041;28;20041;-75
2023/05/03 16:11:53;;;;;;;3.60;1.80;;;;;;;21.17;56.83;102634.41;10375002;28;20096;-75
2023/05/03 16:16:54;;;;;;;3.67;1.83;;;;;;;20.69;54.43;102622.72;10343312;28;20106;-75
2023/05/03 16:21:54;;;;;;;6.45;2.50;;;;;;;19.04;57.61;102634.44;10375609;28;20447;-75
2023/05/03 16:26:55;;;;;;;4.20;1.70;;;;;;;20.00;56.05;102623.19;10375319;28;20052;-75
2023/05/03 16:31:55;;;;;;;5.07;2.00;;;;;;;20.03;56.34;102611.41;10345336;28;20065;-76
2023/05/03 16:36:56;;;;;;;5.10;1.90;;;;;;;20.79;54.98;102612.63;10366216;28;20036;-76
2023/05/03 16:41:56;;;;;;;3.47;1.90;;;;;;;21.26;53.40;102609.44;10382844;28;20065;-76
2023/05/03 16:46:57;;;;;;;3.92;1.90;;;;;;;21.52;53.13;102601.00;10382341;28;20057;-75
2023/05/03 16:51:57;;;;;;;5.60;1.90;;;;;;;21.32;53.70;102599.06;10415364;28;20057;-75
2023/05/03 16:56:58;;;;;;;4.50;1.77;;;;;;;21.55;54.30;102592.81;10381105;28;20064;-75
2023/05/03 17:01:58;;;;;;;3.70;1.77;;;;;;;21.42;52.51;102589.78;10380971;28;20048;-75
2023/05/03 17:06:59;;;;;;;3.88;2.15;;;;;;;20.43;53.66;102577.06;10349625;28;20083;-75
2023/05/03 17:12:00;;;;;;;4.38;1.73;;;;;;;19.88;55.12;102587.06;10364366;28;20044;-75
2023/05/03 17:17:01;;;;;;;3.10;1.95;;;;;;;19.25;56.23;102587.94;10364713;28;20037;-76
2023/05/03 17:22:02;;;;;;;2.97;1.88;;;;;;;18.03;57.29;102601.75;10381782;28;20072;-76
2023/05/03 17:27:06;;;;;;;8.07;2.70;;;;;;;16.47;61.06;102610.13;10364006;28;20038;-76
2023/05/03 17:32:06;;;;;;;3.70;2.22;;;;;;;15.30;63.35;102623.38;10328914;28;20034;-79
2023/05/03 17:37:07;;;;;;;7.95;2.40;;;;;;;14.39;66.07;102626.41;10348548;28;20045;-78
2023/05/03 17:42:08;;;;;;;4.90;2.60;;;;;;;13.67;68.23;102632.75;10412163;28;20041;-76
2023/05/03 17:47:09;;;;;;;6.25;3.45;;;;;;;13.05;71.93;102646.59;10363129;28;20076;-73
2023/05/03 17:52:10;;;;;;;6.15;3.50;;;;;;;12.43;72.96;102646.50;10379777;28;20052;-75
2023/05/03 17:57:11;;;;;;;8.35;3.67;;;;;;;12.20;76.24;102654.53;10370229;28;20065;-75
2023/05/03 18:02:12;;;;;;;7.22;3.80;;;;;;;11.66;78.10;102642.88;10361895;28;20041;-75
2023/05/03 18:07:12;;;;;;;6.28;3.97;;;;;;;11.51;80.09;102649.50;10346852;28;20043;-76
2023/05/03 18:12:14;;;;;;;5.90;3.55;;;;;;;11.32;84.97;102655.91;10393986;28;20049;-75
2023/05/03 18:17:14;;;;;;;8.60;4.43;;;;;;;11.18;89.22;102660.59;10393057;28;20509;-75
2023/05/03 18:22:15;;;;;;;6.72;4.28;;;;;;;10.94;90.54;102672.31;10374375;28;20060;-75
2023/05/03 18:27:15;;;;;;;8.40;4.32;;;;;;;10.63;92.82;102652.59;10347896;28;20046;-74
2023/05/03 18:32:16;;;;;;;9.75;3.95;;;;;;;10.45;96.79;102655.09;10411146;28;20037;-73
2023/05/03 18:37:17;;;;;;;7.10;4.03;;;;;;;10.19;98.44;102661.38;10394866;28;21051;-74
2023/05/03 18:42:19;;;;;;;6.47;4.28;;;;;;;10.03;100.00;102665.38;10377061;28;20038;-74
2023/05/03 18:47:20;;;;;;;6.70;4.03;;;;;;;9.70;100.00;102652.34;10345281;28;20554;-74
2023/05/03 18:52:21;;;;;;;6.45;4.20;;;;;;;9.60;100.00;102674.69;10344968;28;20060;-76
2023/05/03 18:57:21;;;;;;;8.00;3.92;;;;;;;9.46;100.00;102679.28;10348485;28;20151;-75
2023/05/03 19:02:22;;;;;;;7.40;4.32;;;;;;;9.30;100.00;102685.09;10358045;28;20034;-75
2023/05/03 19:07:22;;;;;;;7.50;4.07;;;;;;;9.02;100.00;102688.72;10393318;28;20065;-76
2023/05/03 19:12:23;;;;;;;8.40;4.40;;;;;;;8.83;100.00;102697.66;10392499;28;20068;-76
2023/05/03 19:17:24;;;;;;;8.43;4.18;;;;;;;8.76;100.00;102702.22;10392167;28;20056;-75
2023/05/03 19:22:25;;;;;;;6.15;4.30;;;;;;;8.53;100.00;102696.94;10410722;28;20056;-76
2023/05/03 19:27:25;;;;;;;7.15;4.60;;;;;;;8.41;100.00;102708.44;10343774;28;20057;-76
2023/05/03 19:32:26;;;;;;;7.30;4.03;;;;;;;8.28;100.00;102708.25;10360332;28;20033;-75
2023/05/03 19:37:27;;;;;;;6.50;4.03;;;;;;;8.12;100.00;102701.09;10361059;28;20099;-76
2023/05/03 19:42:27;;;;;;;8.07;3.70;;;;;;;8.00;100.00;102706.25;10376084;28;20034;-75
2023/05/03 19:47:28;;;;;;;7.93;4.88;;;;;;;7.81;100.00;102694.00;10375814;28;20037;-76
2023/05/03 19:52:28;;;;;;;7.43;3.97;;;;;;;7.72;100.00;102697.88;10335131;28;20038;-76
2023/05/03 19:57:29;;;;;;;9.00;4.13;;;;;;;7.68;100.00;102723.97;10388135;28;20072;-76
2023/05/03 20:02:29;;;;;;;7.15;4.32;;;;;;;7.46;100.00;102699.22;10367591;28;21142;-76
2023/05/03 20:07:31;;;;;;;6.55;4.57;;;;;;;7.56;100.00;102717.25;10364891;28;20049;-76
2023/05/03 20:12:32;;;;;;;8.27;4.00;;;;;;;7.42;100.00;102711.59;10367983;28;20083;-76
2023/05/03 20:17:33;;;;;;;8.68;4.10;;;;;;;7.32;100.00;102700.06;10383909;28;20041;-75
2023/05/03 20:22:33;;;;;;;7.55;3.35;;;;;;;7.32;100.00;102719.25;10367134;28;20045;-76
2023/05/03 20:27:34;;;;;;;5.97;3.75;;;;;;;7.19;100.00;102710.81;10398678;28;20045;-73
2023/05/03 20:32:35;;;;;;;6.80;3.78;;;;;;;7.08;100.00;102712.97;10417164;28;20164;-76
2023/05/03 20:37:36;;;;;;;5.95;3.67;;;;;;;7.03;100.00;102720.91;10367235;28;20300;-75
2023/05/03 20:42:37;;;;;;;6.82;3.00;;;;;;;7.03;100.00;102726.38;10350008;28;20037;-76
2023/05/03 20:47:37;;;;;;;6.22;3.53;;;;;;;6.94;100.00;102722.00;10375066;28;20041;-75
2023/05/03 20:52:38;;;;;;;7.88;3.50;;;;;;;6.81;100.00;102713.56;10368600;28;20378;-75
2023/05/03 20:57:42;;;;;;;9.40;3.30;;;;;;;6.63;100.00;102684.59;10396513;28;20037;-75
2023/05/03 21:02:43;;;;;;;4.32;3.10;;;;;;;6.68;100.00;102697.78;10398647;28;20037;-75
2023/05/03 21:07:44;;;;;;;9.63;4.10;;;;;;;6.68;100.00;102703.25;10412277;28;20117;-75
2023/05/03 21:12:44;;;;;;;9.07;3.80;;;;;;;6.57;100.00;102693.56;10379678;28;20083;-75
2023/05/03 21:17:45;;;;;;;6.20;3.38;;;;;;;6.58;100.00;102699.91;10414044;28;20107;-76
2023/05/03 21:22:45;;;;;;;19.55;4.18;;;;;;;6.49;100.00;102690.03;10396196;28;20033;-76
2023/05/03 21:27:46;;;;;;;4.75;3.15;;;;;;;6.45;100.00;102695.03;10379895;28;20041;-76
2023/05/03 21:32:49;;;;;;;6.03;3.75;;;;;;;6.32;100.00;102672.91;10396798;28;20041;-75
2023/05/03 21:37:50;;;;;;;8.30;4.35;;;;;;;6.35;100.00;102678.03;10364949;28;20064;-76
2023/05/03 21:42:51;;;;;;;10.23;3.60;;;;;;;6.20;100.00;102654.19;10414245;28;20041;-75
2023/05/03 21:47:51;;;;;;;8.52;3.95;;;;;;;6.29;100.00;102676.00;10379709;28;20125;-75
2023/05/03 21:52:52;;;;;;;6.55;3.75;;;;;;;6.26;100.00;102680.81;10380302;28;22202;-76
2023/05/03 21:57:52;;;;;;;8.48;4.05;;;;;;;6.07;100.00;102643.81;10350377;28;20421;-76
2023/05/03 22:02:53;;;;;;;6.75;3.78;;;;;;;6.20;100.00;102665.13;10379350;28;20037;-76
2023/05/03 22:07:53;;;;;;;11.30;4.68;;;;;;;6.15;100.00;102664.81;10395088;28;20045;-76
2023/05/03 22:12:54;;;;;;;7.45;3.80;;;;;;;6.11;100.00;102655.25;10395559;28;20037;-75
2023/05/03 22:17:55;;;;;;;8.65;4.20;;;;;;;5.76;100.00;102608.28;10395594;28;20514;-75
2023/05/03 22:22:56;;;;;;;8.63;4.50;;;;;;;6.01;100.00;102660.94;10378657;28;20087;-75
2023/05/03 22:27:57;;;;;;;8.32;4.45;;;;;;;6.04;100.00;102665.22;10394997;28;20057;-76
2023/05/03 22:32:57;;;;;;;10.13;5.15;;;;;;;5.99;100.00;102660.28;10377790;28;20485;-75
2023/05/03 22:37:58;;;;;;;10.63;5.07;;;;;;;5.93;100.00;102649.19;10360202;28;20639;-75
2023/05/03 22:42:59;;;;;;;9.30;4.18;;;;;;;5.90;100.00;102653.13;10377887;28;20052;-75
2023/05/03 22:47:59;;;;;;;11.15;4.57;;;;;;;5.77;100.00;102636.47;10412891;28;21676;-75
2023/05/03 22:53:00;;;;;;;7.15;4.22;;;;;;;5.79;100.00;102651.66;10410856;28;20111;-75
2023/05/03 22:58:00;;;;;;;12.32;5.35;;;;;;;5.66;100.00;102634.97;10411952;28;20033;-76
2023/05/03 23:03:01;;;;;;;10.57;5.35;;;;;;;5.68;100.00;102632.91;10393463;28;20037;-78